sensor_id;sensor_type;location;lat;lon;timestamp;pressure;altitude;pressure_sealevel;temperature;humidity
61035;BME280;46916;40.564;-7.958;2022-11-20T00:00:46;98161.78;;;10.87;100.00
61035;BME280;46916;40.564;-7.958;2022-11-20T00:02:47;98156.66;;;10.85;100.00
61035;BME280;46916;40.564;-7.958;2022-11-20T00:04:48;98160.13;;;10.86;100.00
61035;BME280;46916;40.564;-7.958;2022-11-20T00:06:48;98171.53;;;10.85;100.00
61035;BME280;46916;40.564;-7.958;2022-11-20T00:08:49;98174.06;;;10.86;100.00
61035;BME280;46916;40.564;-7.958;2022-11-20T00:10:50;98170.47;;;10.87;100.00
61035;BME280;46916;40.564;-7.958;2022-11-20T00:12:51;98185.88;;;10.92;100.00
61035;BME280;46916;40.564;-7.958;2022-11-20T00:14:52;98193.59;;;10.94;100.00
61035;BME280;46916;40.564;-7.958;2022-11-20T00:16:52;98195.16;;;10.96;100.00
61035;BME280;46916;40.564;-7.958;2022-11-20T00:18:54;98191.59;;;10.97;100.00
61035;BME280;46916;40.564;-7.958;2022-11-20T00:21:01;98195.03;;;10.98;100.00
61035;BME280;46916;40.564;-7.958;2022-11-20T00:23:02;98181.03;;;10.99;100.00
61035;BME280;46916;40.564;-7.958;2022-11-20T00:25:03;98173.16;;;10.99;100.00
61035;BME280;46916;40.564;-7.958;2022-11-20T00:27:04;98170.41;;;11.00;100.00
61035;BME280;46916;40.564;-7.958;2022-11-20T00:29:04;98168.63;;;11.01;100.00
61035;BME280;46916;40.564;-7.958;2022-11-20T00:31:10;98170.41;;;11.00;100.00
61035;BME280;46916;40.564;-7.958;2022-11-20T00:33:11;98168.00;;;10.97;100.00
61035;BME280;46916;40.564;-7.958;2022-11-20T00:35:12;98176.00;;;10.96;100.00
61035;BME280;46916;40.564;-7.958;2022-11-20T00:37:12;98181.94;;;10.98;100.00
61035;BME280;46916;40.564;-7.958;2022-11-20T00:39:13;98179.44;;;10.96;100.00
61035;BME280;46916;40.564;-7.958;2022-11-20T00:41:15;98178.75;;;10.94;100.00
61035;BME280;46916;40.564;-7.958;2022-11-20T00:43:16;98176.13;;;10.94;100.00
61035;BME280;46916;40.564;-7.958;2022-11-20T00:45:17;98188.34;;;10.94;100.00
61035;BME280;46916;40.564;-7.958;2022-11-20T00:47:17;98188.25;;;10.95;100.00
61035;BME280;46916;40.564;-7.958;2022-11-20T00:49:18;98181.47;;;10.93;100.00
61035;BME280;46916;40.564;-7.958;2022-11-20T00:51:21;98185.88;;;10.92;100.00
61035;BME280;46916;40.564;-7.958;2022-11-20T00:53:22;98190.41;;;10.90;100.00
61035;BME280;46916;40.564;-7.958;2022-11-20T00:55:23;98191.09;;;10.92;100.00
61035;BME280;46916;40.564;-7.958;2022-11-20T00:57:23;98187.66;;;10.91;100.00
61035;BME280;46916;40.564;-7.958;2022-11-20T00:59:24;98183.25;;;10.92;100.00
61035;BME280;46916;40.564;-7.958;2022-11-20T01:01:25;98185.16;;;10.90;100.00
61035;BME280;46916;40.564;-7.958;2022-11-20T01:03:26;98181.69;;;10.89;100.00
61035;BME280;46916;40.564;-7.958;2022-11-20T01:05:27;98170.63;;;10.86;100.00
61035;BME280;46916;40.564;-7.958;2022-11-20T01:07:27;98170.84;;;10.83;100.00
61035;BME280;46916;40.564;-7.958;2022-11-20T01:09:28;98176.16;;;10.81;100.00
61035;BME280;46916;40.564;-7.958;2022-11-20T01:11:34;98160.78;;;10.77;100.00
61035;BME280;46916;40.564;-7.958;2022-11-20T01:13:36;98163.53;;;10.75;100.00
61035;BME280;46916;40.564;-7.958;2022-11-20T01:15:40;98164.47;;;10.74;100.00
61035;BME280;46916;40.564;-7.958;2022-11-20T01:17:40;98166.16;;;10.75;100.00
61035;BME280;46916;40.564;-7.958;2022-11-20T01:19:41;98177.69;;;10.73;100.00
61035;BME280;46916;40.564;-7.958;2022-11-20T01:21:43;98186.50;;;10.72;100.00
61035;BME280;46916;40.564;-7.958;2022-11-20T01:23:46;98182.91;;;10.73;100.00
61035;BME280;46916;40.564;-7.958;2022-11-20T01:25:46;98184.63;;;10.74;100.00
61035;BME280;46916;40.564;-7.958;2022-11-20T01:27:47;98178.28;;;10.76;100.00
61035;BME280;46916;40.564;-7.958;2022-11-20T01:29:48;98173.78;;;10.78;100.00
61035;BME280;46916;40.564;-7.958;2022-11-20T01:31:49;98172.84;;;10.79;100.00
61035;BME280;46916;40.564;-7.958;2022-11-20T01:33:53;98173.66;;;10.80;100.00
61035;BME280;46916;40.564;-7.958;2022-11-20T01:36:03;98171.88;;;10.80;100.00
61035;BME280;46916;40.564;-7.958;2022-11-20T01:38:04;98173.44;;;10.83;100.00
61035;BME280;46916;40.564;-7.958;2022-11-20T01:40:05;98184.88;;;10.82;100.00
61035;BME280;46916;40.564;-7.958;2022-11-20T01:42:07;98179.88;;;10.79;100.00
61035;BME280;46916;40.564;-7.958;2022-11-20T01:44:49;98171.16;;;10.78;100.00
61035;BME280;46916;40.564;-7.958;2022-11-20T01:47:02;98171.88;;;10.80;100.00
61035;BME280;46916;40.564;-7.958;2022-11-20T01:49:18;98163.41;;;10.77;100.00
61035;BME280;46916;40.564;-7.958;2022-11-20T01:51:33;98164.25;;;10.77;100.00
61035;BME280;46916;40.564;-7.958;2022-11-20T01:53:36;98168.78;;;10.75;100.00
61035;BME280;46916;40.564;-7.958;2022-11-20T01:55:50;98161.03;;;10.74;100.00
61035;BME280;46916;40.564;-7.958;2022-11-20T01:57:52;98154.84;;;10.75;100.00
61035;BME280;46916;40.564;-7.958;2022-11-20T02:00:10;98156.50;;;10.76;100.00
61035;BME280;46916;40.564;-7.958;2022-11-20T02:02:14;98152.22;;;10.75;100.00
61035;BME280;46916;40.564;-7.958;2022-11-20T02:04:15;98146.97;;;10.75;100.00
61035;BME280;46916;40.564;-7.958;2022-11-20T02:06:25;98158.41;;;10.74;100.00
61035;BME280;46916;40.564;-7.958;2022-11-20T02:08:26;98149.59;;;10.75;100.00
61035;BME280;46916;40.564;-7.958;2022-11-20T02:10:29;98147.69;;;10.77;100.00
61035;BME280;46916;40.564;-7.958;2022-11-20T02:12:30;98136.28;;;10.78;100.00
61035;BME280;46916;40.564;-7.958;2022-11-20T02:14:49;98128.50;;;10.76;100.00
61035;BME280;46916;40.564;-7.958;2022-11-20T02:16:51;98147.81;;;10.75;100.00
61035;BME280;46916;40.564;-7.958;2022-11-20T02:18:53;98153.88;;;10.76;100.00
61035;BME280;46916;40.564;-7.958;2022-11-20T02:21:13;98138.91;;;10.78;100.00
61035;BME280;46916;40.564;-7.958;2022-11-20T02:25:55;98137.31;;;10.75;100.00
61035;BME280;46916;40.564;-7.958;2022-11-20T02:27:56;98144.34;;;10.75;100.00
61035;BME280;46916;40.564;-7.958;2022-11-20T02:30:02;98137.44;;;10.74;100.00
61035;BME280;46916;40.564;-7.958;2022-11-20T02:32:03;98134.72;;;10.75;100.00
61035;BME280;46916;40.564;-7.958;2022-11-20T02:34:04;98129.47;;;10.75;100.00
61035;BME280;46916;40.564;-7.958;2022-11-20T02:36:07;98133.88;;;10.75;100.00
61035;BME280;46916;40.564;-7.958;2022-11-20T02:38:09;98138.16;;;10.76;100.00
61035;BME280;46916;40.564;-7.958;2022-11-20T02:40:10;98139.81;;;10.77;100.00
61035;BME280;46916;40.564;-7.958;2022-11-20T02:42:11;98134.50;;;10.78;100.00
61035;BME280;46916;40.564;-7.958;2022-11-20T02:44:12;98129.94;;;10.80;100.00
61035;BME280;46916;40.564;-7.958;2022-11-20T02:46:12;98121.13;;;10.81;100.00
61035;BME280;46916;40.564;-7.958;2022-11-20T02:48:13;98118.50;;;10.81;100.00
61035;BME280;46916;40.564;-7.958;2022-11-20T02:50:14;98129.84;;;10.82;100.00
61035;BME280;46916;40.564;-7.958;2022-11-20T02:52:15;98129.94;;;10.80;100.00
61035;BME280;46916;40.564;-7.958;2022-11-20T02:54:15;98133.41;;;10.81;100.00
61035;BME280;46916;40.564;-7.958;2022-11-20T02:56:16;98121.13;;;10.81;100.00
61035;BME280;46916;40.564;-7.958;2022-11-20T02:58:17;98143.66;;;10.84;100.00
61035;BME280;46916;40.564;-7.958;2022-11-20T03:00:18;98139.25;;;10.84;100.00
61035;BME280;46916;40.564;-7.958;2022-11-20T03:02:19;98131.31;;;10.86;100.00
61035;BME280;46916;40.564;-7.958;2022-11-20T03:04:19;98126.91;;;10.86;100.00
61035;BME280;46916;40.564;-7.958;2022-11-20T03:06:20;98131.31;;;10.86;100.00
61035;BME280;46916;40.564;-7.958;2022-11-20T03:08:21;98132.97;;;10.87;100.00
61035;BME280;46916;40.564;-7.958;2022-11-20T03:10:21;98118.91;;;10.88;100.00
61035;BME280;46916;40.564;-7.958;2022-11-20T03:12:22;98110.00;;;10.90;100.00
61035;BME280;46916;40.564;-7.958;2022-11-20T03:14:23;98120.34;;;10.92;100.00
61035;BME280;46916;40.564;-7.958;2022-11-20T03:16:23;98115.94;;;10.93;100.00
61035;BME280;46916;40.564;-7.958;2022-11-20T03:18:24;98122.00;;;10.93;100.00
61035;BME280;46916;40.564;-7.958;2022-11-20T03:20:25;98117.59;;;10.94;100.00
61035;BME280;46916;40.564;-7.958;2022-11-20T03:22:29;98123.56;;;10.96;100.00
61035;BME280;46916;40.564;-7.958;2022-11-20T03:24:30;98118.47;;;10.94;100.00
61035;BME280;46916;40.564;-7.958;2022-11-20T03:26:31;98122.84;;;10.94;100.00
61035;BME280;46916;40.564;-7.958;2022-11-20T03:28:31;98129.88;;;10.93;100.00
61035;BME280;46916;40.564;-7.958;2022-11-20T03:30:32;98121.09;;;10.94;100.00
61035;BME280;46916;40.564;-7.958;2022-11-20T03:32:34;98119.28;;;10.95;100.00
61035;BME280;46916;40.564;-7.958;2022-11-20T03:34:34;98123.69;;;10.94;100.00
61035;BME280;46916;40.564;-7.958;2022-11-20T03:36:40;98119.28;;;10.95;100.00
61035;BME280;46916;40.564;-7.958;2022-11-20T03:38:41;98121.09;;;10.94;100.00
61035;BME280;46916;40.564;-7.958;2022-11-20T03:40:42;98125.38;;;10.95;100.00
61035;BME280;46916;40.564;-7.958;2022-11-20T03:42:43;98118.22;;;10.97;100.00
61035;BME280;46916;40.564;-7.958;2022-11-20T03:44:46;98108.56;;;10.98;100.00
61035;BME280;46916;40.564;-7.958;2022-11-20T03:46:47;98106.78;;;10.98;100.00
61035;BME280;46916;40.564;-7.958;2022-11-20T03:48:48;98103.31;;;10.98;100.00
61035;BME280;46916;40.564;-7.958;2022-11-20T03:50:48;98113.78;;;10.98;100.00
61035;BME280;46916;40.564;-7.958;2022-11-20T03:52:49;98115.50;;;10.99;100.00
61035;BME280;46916;40.564;-7.958;2022-11-20T03:54:50;98118.22;;;10.97;100.00
61035;BME280;46916;40.564;-7.958;2022-11-20T03:56:50;98119.91;;;10.98;100.00
61035;BME280;46916;40.564;-7.958;2022-11-20T03:58:51;98108.56;;;10.98;100.00
61035;BME280;46916;40.564;-7.958;2022-11-20T04:00:52;98110.25;;;10.99;100.00
61035;BME280;46916;40.564;-7.958;2022-11-20T04:02:52;98102.25;;;11.00;100.00
61035;BME280;46916;40.564;-7.958;2022-11-20T04:04:53;98103.22;;;10.99;100.00
61035;BME280;46916;40.564;-7.958;2022-11-20T04:06:54;98089.16;;;11.00;100.00
61035;BME280;46916;40.564;-7.958;2022-11-20T04:08:58;98086.53;;;11.00;100.00
61035;BME280;46916;40.564;-7.958;2022-11-20T04:13:09;98089.28;;;10.99;100.00
61035;BME280;46916;40.564;-7.958;2022-11-20T04:15:10;98084.97;;;10.98;100.00
61035;BME280;46916;40.564;-7.958;2022-11-20T04:17:11;98082.34;;;10.98;100.00
61035;BME280;46916;40.564;-7.958;2022-11-20T04:19:14;98092.81;;;10.98;100.00
61035;BME280;46916;40.564;-7.958;2022-11-20T04:21:15;98093.78;;;10.97;100.00
61035;BME280;46916;40.564;-7.958;2022-11-20T04:23:16;98099.75;;;10.99;100.00
61035;BME280;46916;40.564;-7.958;2022-11-20T04:25:17;98093.56;;;11.00;100.00
61035;BME280;46916;40.564;-7.958;2022-11-20T04:27:17;98084.75;;;11.01;100.00
61035;BME280;46916;40.564;-7.958;2022-11-20T04:29:18;98081.16;;;11.02;100.00
61035;BME280;46916;40.564;-7.958;2022-11-20T04:31:21;98079.50;;;11.01;100.00
61035;BME280;46916;40.564;-7.958;2022-11-20T04:33:22;98090.94;;;11.00;100.00
61035;BME280;46916;40.564;-7.958;2022-11-20T04:35:23;98097.00;;;11.00;100.00
61035;BME280;46916;40.564;-7.958;2022-11-20T04:37:23;98100.47;;;11.01;100.00
61035;BME280;46916;40.564;-7.958;2022-11-20T04:39:24;98098.59;;;11.03;100.00
61035;BME280;46916;40.564;-7.958;2022-11-20T04:41:27;98093.22;;;11.04;100.00
61035;BME280;46916;40.564;-7.958;2022-11-20T04:43:29;98087.13;;;11.04;100.00
61035;BME280;46916;40.564;-7.958;2022-11-20T04:45:30;98086.31;;;11.03;100.00
61035;BME280;46916;40.564;-7.958;2022-11-20T04:47:30;98099.41;;;11.03;100.00
61035;BME280;46916;40.564;-7.958;2022-11-20T04:49:31;98084.50;;;11.04;100.00
61035;BME280;46916;40.564;-7.958;2022-11-20T04:51:33;98092.38;;;11.04;100.00
61035;BME280;46916;40.564;-7.958;2022-11-20T04:53:33;98094.16;;;11.03;100.00
61035;BME280;46916;40.564;-7.958;2022-11-20T04:55:34;98105.34;;;11.05;100.00
61035;BME280;46916;40.564;-7.958;2022-11-20T04:57:35;98097.50;;;11.05;100.00
61035;BME280;46916;40.564;-7.958;2022-11-20T04:59:35;98097.41;;;11.07;100.00
61035;BME280;46916;40.564;-7.958;2022-11-20T05:01:36;98096.56;;;11.06;100.00
61035;BME280;46916;40.564;-7.958;2022-11-20T05:03:37;98102.75;;;11.05;100.00
61035;BME280;46916;40.564;-7.958;2022-11-20T05:05:38;98102.75;;;11.05;100.00
61035;BME280;46916;40.564;-7.958;2022-11-20T05:07:39;98108.94;;;11.04;100.00
61035;BME280;46916;40.564;-7.958;2022-11-20T05:09:39;98107.16;;;11.05;100.00
61035;BME280;46916;40.564;-7.958;2022-11-20T05:11:40;98101.81;;;11.06;100.00
61035;BME280;46916;40.564;-7.958;2022-11-20T05:13:41;98100.94;;;11.06;100.00
61035;BME280;46916;40.564;-7.958;2022-11-20T05:15:42;98096.66;;;11.05;100.00
61035;BME280;46916;40.564;-7.958;2022-11-20T05:17:52;98103.69;;;11.04;100.00
61035;BME280;46916;40.564;-7.958;2022-11-20T05:19:53;98102.03;;;11.03;100.00
61035;BME280;46916;40.564;-7.958;2022-11-20T05:21:53;98103.81;;;11.03;100.00
61035;BME280;46916;40.564;-7.958;2022-11-20T05:23:54;98110.84;;;11.02;100.00
61035;BME280;46916;40.564;-7.958;2022-11-20T05:25:56;98103.81;;;11.03;100.00
61035;BME280;46916;40.564;-7.958;2022-11-20T05:27:57;98104.53;;;11.05;100.00
61035;BME280;46916;40.564;-7.958;2022-11-20T05:29:57;98104.66;;;11.03;100.00
61035;BME280;46916;40.564;-7.958;2022-11-20T05:31:58;98105.34;;;11.05;100.00
61035;BME280;46916;40.564;-7.958;2022-11-20T05:33:58;98107.97;;;11.05;100.00
61035;BME280;46916;40.564;-7.958;2022-11-20T05:35:59;98114.91;;;11.06;100.00
61035;BME280;46916;40.564;-7.958;2022-11-20T05:38:00;98103.69;;;11.04;100.00
61035;BME280;46916;40.564;-7.958;2022-11-20T05:40:01;98103.69;;;11.04;100.00
61035;BME280;46916;40.564;-7.958;2022-11-20T05:42:01;98096.88;;;11.02;100.00
61035;BME280;46916;40.564;-7.958;2022-11-20T05:44:20;98103.09;;;11.01;100.00
61035;BME280;46916;40.564;-7.958;2022-11-20T05:46:21;98104.88;;;11.00;100.00
61035;BME280;46916;40.564;-7.958;2022-11-20T05:48:22;98109.16;;;11.01;100.00
61035;BME280;46916;40.564;-7.958;2022-11-20T05:50:22;98109.16;;;11.01;100.00
61035;BME280;46916;40.564;-7.958;2022-11-20T05:52:23;98108.22;;;11.02;100.00
61035;BME280;46916;40.564;-7.958;2022-11-20T05:54:24;98109.91;;;11.03;100.00
61035;BME280;46916;40.564;-7.958;2022-11-20T05:56:24;98114.19;;;11.04;100.00
61035;BME280;46916;40.564;-7.958;2022-11-20T05:58:25;98108.22;;;11.02;100.00
61035;BME280;46916;40.564;-7.958;2022-11-20T06:00:26;98110.84;;;11.02;100.00
61035;BME280;46916;40.564;-7.958;2022-11-20T06:02:26;98110.94;;;11.01;100.00
61035;BME280;46916;40.564;-7.958;2022-11-20T06:04:27;98110.84;;;11.02;100.00
61035;BME280;46916;40.564;-7.958;2022-11-20T06:06:28;98110.84;;;11.02;100.00
61035;BME280;46916;40.564;-7.958;2022-11-20T06:08:28;98109.16;;;11.01;100.00
61035;BME280;46916;40.564;-7.958;2022-11-20T06:10:29;98106.53;;;11.01;100.00
61035;BME280;46916;40.564;-7.958;2022-11-20T06:12:31;98112.75;;;11.00;100.00
61035;BME280;46916;40.564;-7.958;2022-11-20T06:14:33;98105.84;;;10.99;100.00
61035;BME280;46916;40.564;-7.958;2022-11-20T06:16:34;98110.94;;;11.01;100.00
61035;BME280;46916;40.564;-7.958;2022-11-20T06:18:35;98117.03;;;11.01;100.00
61035;BME280;46916;40.564;-7.958;2022-11-20T06:20:35;98111.69;;;11.03;100.00
61035;BME280;46916;40.564;-7.958;2022-11-20T06:22:36;98111.56;;;11.04;100.00
61035;BME280;46916;40.564;-7.958;2022-11-20T06:24:37;98121.09;;;11.05;100.00
61035;BME280;46916;40.564;-7.958;2022-11-20T06:26:37;98120.25;;;11.05;100.00
61035;BME280;46916;40.564;-7.958;2022-11-20T06:28:38;98120.16;;;11.06;100.00
61035;BME280;46916;40.564;-7.958;2022-11-20T06:30:44;98116.56;;;11.07;100.00
61035;BME280;46916;40.564;-7.958;2022-11-20T06:32:46;98121.69;;;11.09;100.00
61035;BME280;46916;40.564;-7.958;2022-11-20T06:34:46;98114.78;;;11.08;100.00
61035;BME280;46916;40.564;-7.958;2022-11-20T06:36:47;98119.19;;;11.07;100.00
61035;BME280;46916;40.564;-7.958;2022-11-20T06:38:48;98115.63;;;11.08;100.00
61035;BME280;46916;40.564;-7.958;2022-11-20T06:40:49;98120.03;;;11.08;100.00
61035;BME280;46916;40.564;-7.958;2022-11-20T06:42:49;98111.34;;;11.07;100.00
61035;BME280;46916;40.564;-7.958;2022-11-20T06:44:50;98111.34;;;11.07;100.00
61035;BME280;46916;40.564;-7.958;2022-11-20T06:46:51;98113.22;;;11.05;100.00
61035;BME280;46916;40.564;-7.958;2022-11-20T06:48:51;98112.38;;;11.05;100.00
61035;BME280;46916;40.564;-7.958;2022-11-20T06:50:52;98117.63;;;11.05;100.00
61035;BME280;46916;40.564;-7.958;2022-11-20T06:52:53;98116.81;;;11.04;100.00
61035;BME280;46916;40.564;-7.958;2022-11-20T06:54:53;98118.59;;;11.04;100.00
61035;BME280;46916;40.564;-7.958;2022-11-20T06:56:54;98119.41;;;11.04;100.00
61035;BME280;46916;40.564;-7.958;2022-11-20T06:58:55;98119.41;;;11.04;100.00
61035;BME280;46916;40.564;-7.958;2022-11-20T07:00:59;98123.72;;;11.05;100.00
61035;BME280;46916;40.564;-7.958;2022-11-20T07:03:03;98133.25;;;11.06;100.00
61035;BME280;46916;40.564;-7.958;2022-11-20T07:05:04;98128.94;;;11.05;100.00
61035;BME280;46916;40.564;-7.958;2022-11-20T07:07:05;98130.03;;;11.03;100.00
61035;BME280;46916;40.564;-7.958;2022-11-20T07:09:06;98142.06;;;11.05;100.00
61035;BME280;46916;40.564;-7.958;2022-11-20T07:11:07;98146.47;;;11.05;100.00
61035;BME280;46916;40.564;-7.958;2022-11-20T07:13:08;98147.19;;;11.07;100.00
61035;BME280;46916;40.564;-7.958;2022-11-20T07:15:09;98148.03;;;11.07;100.00
61035;BME280;46916;40.564;-7.958;2022-11-20T07:17:09;98139.44;;;11.05;100.00
61035;BME280;46916;40.564;-7.958;2022-11-20T07:19:10;98149.00;;;11.06;100.00
61035;BME280;46916;40.564;-7.958;2022-11-20T07:21:11;98148.13;;;11.06;100.00
61035;BME280;46916;40.564;-7.958;2022-11-20T07:23:12;98145.50;;;11.06;100.00
61035;BME280;46916;40.564;-7.958;2022-11-20T07:25:12;98144.69;;;11.05;100.00
61035;BME280;46916;40.564;-7.958;2022-11-20T07:27:13;98149.09;;;11.05;100.00
61035;BME280;46916;40.564;-7.958;2022-11-20T07:29:13;98158.63;;;11.06;100.00
61035;BME280;46916;40.564;-7.958;2022-11-20T07:31:14;98164.72;;;11.06;100.00
61035;BME280;46916;40.564;-7.958;2022-11-20T07:33:15;98161.97;;;11.08;100.00
61035;BME280;46916;40.564;-7.958;2022-11-20T07:35:16;98162.81;;;11.08;100.00
61035;BME280;46916;40.564;-7.958;2022-11-20T07:37:16;98165.56;;;11.07;100.00
61035;BME280;46916;40.564;-7.958;2022-11-20T07:39:17;98162.09;;;11.06;100.00
61035;BME280;46916;40.564;-7.958;2022-11-20T07:41:18;98160.19;;;11.08;100.00
61035;BME280;46916;40.564;-7.958;2022-11-20T07:43:19;98166.25;;;11.09;100.00
61035;BME280;46916;40.564;-7.958;2022-11-20T07:45:20;98178.41;;;11.10;100.00
61035;BME280;46916;40.564;-7.958;2022-11-20T07:47:21;98170.53;;;11.10;100.00
61035;BME280;46916;40.564;-7.958;2022-11-20T07:49:22;98176.66;;;11.10;100.00
61035;BME280;46916;40.564;-7.958;2022-11-20T07:51:23;98171.41;;;11.10;100.00
61035;BME280;46916;40.564;-7.958;2022-11-20T07:53:23;98187.97;;;11.11;100.00
61035;BME280;46916;40.564;-7.958;2022-11-20T07:55:24;98195.72;;;11.12;100.00
61035;BME280;46916;40.564;-7.958;2022-11-20T07:57:25;98189.50;;;11.13;100.00
61035;BME280;46916;40.564;-7.958;2022-11-20T07:59:25;98188.56;;;11.14;100.00
61035;BME280;46916;40.564;-7.958;2022-11-20T08:01:26;98190.25;;;11.15;100.00
61035;BME280;46916;40.564;-7.958;2022-11-20T08:03:27;98190.25;;;11.15;100.00
61035;BME280;46916;40.564;-7.958;2022-11-20T08:05:27;98192.75;;;11.17;100.00
61035;BME280;46916;40.564;-7.958;2022-11-20T08:07:28;98198.59;;;11.21;100.00
61035;BME280;46916;40.564;-7.958;2022-11-20T08:09:28;98200.25;;;11.22;100.00
61035;BME280;46916;40.564;-7.958;2022-11-20T08:11:29;98189.53;;;11.25;100.00
61035;BME280;46916;40.564;-7.958;2022-11-20T08:13:49;98194.78;;;11.25;100.00
61035;BME280;46916;40.564;-7.958;2022-11-20T08:16:08;98203.50;;;11.25;100.00
61035;BME280;46916;40.564;-7.958;2022-11-20T08:18:10;98209.34;;;11.29;100.00
61035;BME280;46916;40.564;-7.958;2022-11-20T08:20:12;98209.34;;;11.29;100.00
61035;BME280;46916;40.564;-7.958;2022-11-20T08:22:12;98221.50;;;11.30;100.00
61035;BME280;46916;40.564;-7.958;2022-11-20T08:24:13;98224.03;;;11.31;100.00
61035;BME280;46916;40.564;-7.958;2022-11-20T08:26:14;98222.94;;;11.34;100.00
61035;BME280;46916;40.564;-7.958;2022-11-20T08:28:15;98221.88;;;11.36;100.00
61035;BME280;46916;40.564;-7.958;2022-11-20T08:30:15;98223.53;;;11.37;100.00
61035;BME280;46916;40.564;-7.958;2022-11-20T08:32:16;98216.50;;;11.38;100.00
61035;BME280;46916;40.564;-7.958;2022-11-20T08:34:16;98217.94;;;11.42;100.00
61035;BME280;46916;40.564;-7.958;2022-11-20T08:36:18;98218.91;;;11.41;100.00
61035;BME280;46916;40.564;-7.958;2022-11-20T08:38:19;98223.09;;;11.44;100.00
61035;BME280;46916;40.564;-7.958;2022-11-20T08:40:20;98218.69;;;11.44;100.00
61035;BME280;46916;40.564;-7.958;2022-11-20T08:42:20;98216.75;;;11.46;100.00
61035;BME280;46916;40.564;-7.958;2022-11-20T08:44:21;98222.75;;;11.48;100.00
61035;BME280;46916;40.564;-7.958;2022-11-20T08:46:23;98218.22;;;11.50;100.00
61035;BME280;46916;40.564;-7.958;2022-11-20T08:48:24;98220.72;;;11.52;100.00
61035;BME280;46916;40.564;-7.958;2022-11-20T08:50:24;98225.72;;;11.55;100.00
61035;BME280;46916;40.564;-7.958;2022-11-20T08:52:25;98233.38;;;11.58;100.00
61035;BME280;46916;40.564;-7.958;2022-11-20T08:54:26;98233.16;;;11.61;100.00
61035;BME280;46916;40.564;-7.958;2022-11-20T08:56:27;98241.97;;;11.60;100.00
61035;BME280;46916;40.564;-7.958;2022-11-20T08:58:28;98242.69;;;11.62;100.00
61035;BME280;46916;40.564;-7.958;2022-11-20T09:00:29;98244.47;;;11.61;100.00
61035;BME280;46916;40.564;-7.958;2022-11-20T09:02:29;98240.88;;;11.62;100.00
61035;BME280;46916;40.564;-7.958;2022-11-20T09:04:30;98249.59;;;11.63;100.00
61035;BME280;46916;40.564;-7.958;2022-11-20T09:06:31;98254.75;;;11.64;100.00
61035;BME280;46916;40.564;-7.958;2022-11-20T09:08:32;98252.13;;;11.64;100.00
61035;BME280;46916;40.564;-7.958;2022-11-20T09:10:33;98248.66;;;11.64;100.00
61035;BME280;46916;40.564;-7.958;2022-11-20T09:12:34;98254.59;;;11.66;100.00
61035;BME280;46916;40.564;-7.958;2022-11-20T09:14:34;98246.75;;;11.66;100.00
61035;BME280;46916;40.564;-7.958;2022-11-20T09:16:35;98245.91;;;11.65;100.00
61035;BME280;46916;40.564;-7.958;2022-11-20T09:18:36;98247.56;;;11.66;100.00
61035;BME280;46916;40.564;-7.958;2022-11-20T09:20:37;98247.56;;;11.66;100.00
61035;BME280;46916;40.564;-7.958;2022-11-20T09:22:39;98243.28;;;11.65;100.00
61035;BME280;46916;40.564;-7.958;2022-11-20T09:24:40;98243.06;;;11.69;100.00
61035;BME280;46916;40.564;-7.958;2022-11-20T09:26:41;98255.09;;;11.71;100.00
61035;BME280;46916;40.564;-7.958;2022-11-20T09:28:41;98252.38;;;11.73;100.00
61035;BME280;46916;40.564;-7.958;2022-11-20T09:30:42;98256.31;;;11.78;100.00
61035;BME280;46916;40.564;-7.958;2022-11-20T09:32:42;98249.38;;;11.77;100.00
61035;BME280;46916;40.564;-7.958;2022-11-20T09:34:43;98255.34;;;11.79;100.00
61035;BME280;46916;40.564;-7.958;2022-11-20T09:36:44;98254.41;;;11.80;100.00
61035;BME280;46916;40.564;-7.958;2022-11-20T09:38:46;98252.50;;;11.82;100.00
61035;BME280;46916;40.564;-7.958;2022-11-20T09:41:05;98255.06;;;11.84;100.00
61035;BME280;46916;40.564;-7.958;2022-11-20T09:48:52;98269.47;;;11.89;100.00
61035;BME280;46916;40.564;-7.958;2022-11-20T09:53:42;98267.69;;;11.90;100.00
61035;BME280;46916;40.564;-7.958;2022-11-20T09:55:47;98266.84;;;11.89;100.00
61035;BME280;46916;40.564;-7.958;2022-11-20T09:57:50;98263.16;;;11.92;100.00
61035;BME280;46916;40.564;-7.958;2022-11-20T10:00:00;98262.22;;;11.93;100.00
61035;BME280;46916;40.564;-7.958;2022-11-20T10:02:03;98265.66;;;11.94;100.00
61035;BME280;46916;40.564;-7.958;2022-11-20T10:04:17;98262.91;;;11.95;100.00
61035;BME280;46916;40.564;-7.958;2022-11-20T10:06:30;98268.91;;;11.97;100.00
61035;BME280;46916;40.564;-7.958;2022-11-20T10:08:41;98270.56;;;11.98;100.00
61035;BME280;46916;40.564;-7.958;2022-11-20T10:13:09;98278.91;;;12.03;100.00
61035;BME280;46916;40.564;-7.958;2022-11-20T10:17:46;98267.22;;;12.07;100.00
61035;BME280;46916;40.564;-7.958;2022-11-20T10:21:02;98272.25;;;12.10;100.00
61035;BME280;46916;40.564;-7.958;2022-11-20T10:25:13;98274.72;;;12.12;100.00
61035;BME280;46916;40.564;-7.958;2022-11-20T10:27:20;98275.59;;;12.12;100.00
61035;BME280;46916;40.564;-7.958;2022-11-20T10:29:34;98272.00;;;12.13;100.00
61035;BME280;46916;40.564;-7.958;2022-11-20T10:31:45;98272.72;;;12.15;100.00
61035;BME280;46916;40.564;-7.958;2022-11-20T10:33:49;98274.28;;;12.18;100.00
61035;BME280;46916;40.564;-7.958;2022-11-20T10:36:14;98262.72;;;12.21;100.00
61035;BME280;46916;40.564;-7.958;2022-11-20T10:38:26;98264.38;;;12.22;100.00
61035;BME280;46916;40.564;-7.958;2022-11-20T10:40:38;98266.88;;;12.23;100.00
61035;BME280;46916;40.564;-7.958;2022-11-20T10:43:02;98265.81;;;12.26;100.00
61035;BME280;46916;40.564;-7.958;2022-11-20T10:47:25;98269.97;;;12.28;100.00
61035;BME280;46916;40.564;-7.958;2022-11-20T10:49:26;98275.13;;;12.30;100.00
61035;BME280;46916;40.564;-7.958;2022-11-20T10:51:37;98273.31;;;12.30;100.00
61035;BME280;46916;40.564;-7.958;2022-11-20T10:55:56;98275.81;;;12.32;100.00
61035;BME280;46916;40.564;-7.958;2022-11-20T10:58:29;98280.13;;;12.33;100.00